Time;durP1;ratioP1;P1;durP2;ratioP2;P2;SDS_P1;SDS_P2;PMS_P1;PMS_P2;Temp;Humidity;BMP_temperature;BMP_pressure;BME280_temperature;BME280_humidity;BME280_pressure;Samples;Min_cycle;Max_cycle;Signal;HPM_P1;HPM_P2
2023/04/27 00:01:31;;;;;;;9.27;2.80;;;;;;;18.69;61.06;100405.16;5065135;28;20207;-59
2023/04/27 00:03:57;;;;;;;6.27;3.30;;;;;;;18.65;60.92;100402.25;5080325;28;20600;-59
2023/04/27 00:06:22;;;;;;;6.23;2.70;;;;;;;18.65;61.02;100402.25;5072060;28;20683;-60
2023/04/27 00:08:48;;;;;;;5.93;2.83;;;;;;;18.64;61.14;100400.59;5085365;28;20195;-59
2023/04/27 00:11:13;;;;;;;4.07;2.43;;;;;;;18.64;61.23;100403.44;5090246;28;20226;-59
2023/04/27 00:13:39;;;;;;;3.90;2.43;;;;;;;18.64;61.07;100394.88;5090576;28;21007;-59
2023/04/27 00:16:04;;;;;;;6.60;3.17;;;;;;;18.65;61.40;100393.66;5085758;28;20197;-60
2023/04/27 00:18:31;;;;;;;6.50;3.50;;;;;;;18.65;61.02;100405.09;5075027;28;20185;-61
2023/04/27 00:20:56;;;;;;;7.70;3.30;;;;;;;18.62;61.11;100402.19;5036920;28;20280;-60
2023/04/27 00:23:22;;;;;;;7.20;3.30;;;;;;;18.63;61.47;100396.09;5069166;28;20936;-59
2023/04/27 00:25:47;;;;;;;5.40;2.83;;;;;;;18.61;61.15;100392.75;5071481;28;20198;-58
2023/04/27 00:28:12;;;;;;;7.80;2.90;;;;;;;18.60;61.29;100396.00;5069845;28;20236;-59
2023/04/27 00:30:38;;;;;;;7.53;3.03;;;;;;;18.61;61.17;100398.47;5052114;28;20179;-59
2023/04/27 00:33:03;;;;;;;7.60;3.00;;;;;;;18.60;61.48;100391.13;5089140;28;20181;-60
2023/04/27 00:35:29;;;;;;;6.70;2.70;;;;;;;18.60;61.32;100385.38;5049393;28;20160;-59
2023/04/27 00:37:54;;;;;;;6.77;3.00;;;;;;;18.58;61.13;100393.53;5068020;28;20179;-60
2023/04/27 00:40:20;;;;;;;5.67;2.73;;;;;;;18.59;61.39;100389.47;5089835;28;20202;-59
2023/04/27 00:42:46;;;;;;;5.50;3.00;;;;;;;18.57;61.34;100391.03;5080094;28;20175;-59
2023/04/27 00:45:12;;;;;;;7.30;3.13;;;;;;;18.55;61.47;100388.56;5069276;28;20642;-60
2023/04/27 00:47:37;;;;;;;7.70;2.47;;;;;;;18.57;61.34;100396.78;5071725;28;20224;-59
2023/04/27 00:50:07;;;;;;;8.90;3.10;;;;;;;18.55;61.55;100391.41;5069013;28;21170;-60
2023/04/27 00:52:32;;;;;;;8.07;3.10;;;;;;;18.56;61.23;100395.94;5069145;28;20182;-59
2023/04/27 00:54:58;;;;;;;5.40;2.60;;;;;;;18.56;61.32;100400.84;5070154;28;20824;-59
2023/04/27 00:57:23;;;;;;;6.53;2.80;;;;;;;18.56;61.39;100407.38;5049950;28;20190;-60
2023/04/27 00:59:49;;;;;;;5.50;2.60;;;;;;;18.56;61.15;100401.66;5077139;28;20175;-60
2023/04/27 01:02:14;;;;;;;5.17;2.53;;;;;;;18.59;61.10;100405.78;5069214;28;20198;-59
2023/04/27 01:04:40;;;;;;;7.13;3.10;;;;;;;18.56;61.29;100404.50;5053310;28;20288;-60
2023/04/27 01:07:05;;;;;;;6.80;2.80;;;;;;;18.59;61.39;100398.03;5068869;28;20867;-59
2023/04/27 01:09:31;;;;;;;4.60;2.50;;;;;;;18.60;61.22;100390.28;5071329;28;20649;-59
2023/04/27 01:11:57;;;;;;;7.20;2.80;;;;;;;18.61;61.20;100395.63;5069415;28;20218;-60
2023/04/27 01:14:22;;;;;;;4.60;2.63;;;;;;;18.59;61.21;100392.31;5069602;28;20220;-60
2023/04/27 01:16:48;;;;;;;5.10;2.63;;;;;;;18.59;61.08;100394.34;5060677;28;20920;-60
2023/04/27 01:19:14;;;;;;;5.30;2.90;;;;;;;18.62;60.95;100396.47;5075056;28;20194;-59
2023/04/27 01:21:39;;;;;;;8.87;2.73;;;;;;;18.65;61.04;100398.53;5050287;28;20457;-60
2023/04/27 01:24:06;;;;;;;5.93;2.80;;;;;;;18.64;61.23;100403.44;5068642;28;20232;-60
2023/04/27 01:26:31;;;;;;;4.47;2.10;;;;;;;18.66;61.00;100409.59;5050350;28;20695;-60
2023/04/27 01:28:57;;;;;;;6.00;2.83;;;;;;;18.67;60.93;100404.72;5081563;28;20439;-59
2023/04/27 01:31:22;;;;;;;4.90;2.33;;;;;;;18.67;60.90;100408.38;5068367;28;21121;-60
2023/04/27 01:33:48;;;;;;;7.83;3.20;;;;;;;18.63;60.98;100413.25;5070570;28;20187;-59
2023/04/27 01:36:13;;;;;;;7.60;2.97;;;;;;;18.68;60.81;100420.66;5073005;28;20183;-59
2023/04/27 01:38:39;;;;;;;5.27;2.87;;;;;;;18.71;60.59;100412.16;5056465;28;20167;-59
2023/04/27 01:41:06;;;;;;;6.10;2.43;;;;;;;18.66;61.35;100411.66;5070110;28;20218;-60
2023/04/27 01:43:31;;;;;;;6.50;3.00;;;;;;;18.62;60.96;100411.56;5050149;28;21117;-60
2023/04/27 01:46:07;;;;;;;6.43;2.93;;;;;;;18.60;61.01;100405.41;5068383;28;20506;-59
2023/04/27 01:48:33;;;;;;;6.27;2.93;;;;;;;18.60;61.23;100416.00;5068252;28;20405;-59
2023/04/27 01:50:58;;;;;;;4.47;2.60;;;;;;;18.59;61.05;100412.34;5054762;28;20928;-59
2023/04/27 01:53:24;;;;;;;3.60;2.30;;;;;;;18.61;61.06;100415.63;5068206;28;20414;-60
2023/04/27 01:55:50;;;;;;;5.80;2.77;;;;;;;18.62;61.42;100402.19;5067909;28;20221;-59
2023/04/27 01:58:15;;;;;;;6.27;3.00;;;;;;;18.60;61.26;100405.41;5068301;28;20659;-60
2023/04/27 02:00:40;;;;;;;7.93;3.10;;;;;;;18.59;61.22;100400.06;5070114;28;20657;-60
2023/04/27 02:03:06;;;;;;;5.63;2.63;;;;;;;18.59;61.34;100397.19;5087889;28;21002;-59
2023/04/27 02:05:31;;;;;;;5.53;2.37;;;;;;;18.57;61.37;100402.47;5088474;28;20585;-59
2023/04/27 02:07:57;;;;;;;5.53;3.00;;;;;;;18.56;61.11;100401.66;5083071;28;20236;-59
2023/04/27 02:10:22;;;;;;;4.33;2.37;;;;;;;18.57;61.34;100400.44;5049751;28;20202;-59
2023/04/27 02:12:48;;;;;;;3.00;2.13;;;;;;;18.56;61.41;100401.66;5069986;28;20226;-59
2023/04/27 02:15:13;;;;;;;3.67;2.13;;;;;;;18.55;61.63;100404.88;5068346;28;20190;-59
2023/04/27 02:17:39;;;;;;;6.00;3.13;;;;;;;18.54;61.26;100401.22;5069750;28;20206;-60
2023/04/27 02:20:09;;;;;;;4.93;2.80;;;;;;;18.53;61.19;100405.28;5049785;28;20579;-59
2023/04/27 02:22:35;;;;;;;5.10;2.70;;;;;;;18.53;61.19;100404.44;5067569;28;20186;-61
2023/04/27 02:25:00;;;;;;;3.80;2.20;;;;;;;18.52;61.37;100406.47;5067294;28;20773;-61
2023/04/27 02:27:26;;;;;;;4.13;2.30;;;;;;;18.52;61.62;100417.09;5082042;28;20186;-60
2023/04/27 02:29:51;;;;;;;3.20;2.10;;;;;;;18.51;61.23;100413.38;5067239;28;20183;-59
2023/04/27 02:32:16;;;;;;;6.07;2.97;;;;;;;18.50;61.23;100411.75;5068720;28;20167;-62
2023/04/27 02:34:42;;;;;;;6.77;2.87;;;;;;;18.51;61.54;100416.25;5086700;28;20198;-60
2023/04/27 02:37:07;;;;;;;5.53;2.40;;;;;;;18.51;61.49;100415.44;5092742;28;20204;-60
2023/04/27 02:39:33;;;;;;;7.00;2.67;;;;;;;18.51;61.46;100418.31;5083945;28;20182;-60
2023/04/27 02:41:58;;;;;;;7.03;2.33;;;;;;;18.51;61.33;100416.25;5053492;28;20542;-60
2023/04/27 02:44:24;;;;;;;4.77;2.57;;;;;;;18.54;61.09;100421.22;5071685;28;20776;-60
2023/04/27 02:46:49;;;;;;;5.87;2.60;;;;;;;18.53;61.27;100418.72;5053635;28;20737;-60
2023/04/27 02:49:15;;;;;;;7.00;2.90;;;;;;;18.53;61.33;100422.44;5073564;28;20190;-61
2023/04/27 02:51:41;;;;;;;4.90;2.47;;;;;;;18.53;61.01;100421.59;5071347;28;20183;-61
2023/04/27 02:54:06;;;;;;;5.13;2.50;;;;;;;18.56;61.16;100421.66;5070935;28;20312;-60
2023/04/27 02:56:32;;;;;;;4.70;2.53;;;;;;;18.59;61.12;100420.06;5071169;28;20167;-60
2023/04/27 02:58:57;;;;;;;4.67;2.60;;;;;;;18.59;61.12;100422.94;5086666;28;20190;-60
2023/04/27 03:01:23;;;;;;;4.93;2.30;;;;;;;18.57;60.95;100419.63;5073101;28;20194;-60
2023/04/27 03:03:48;;;;;;;5.43;2.57;;;;;;;18.56;60.96;100424.50;5079671;28;20183;-60
2023/04/27 03:06:13;;;;;;;6.97;2.20;;;;;;;18.55;61.21;100417.16;5062967;28;20223;-60
2023/04/27 03:08:39;;;;;;;3.37;2.17;;;;;;;18.55;61.20;100414.28;5050904;28;20202;-61
2023/04/27 03:11:05;;;;;;;3.50;1.97;;;;;;;18.56;61.15;100418.00;5050977;28;20251;-60
2023/04/27 03:13:34;;;;;;;6.90;3.17;;;;;;;18.60;61.03;100414.00;5052786;28;20190;-61
2023/04/27 03:16:00;;;;;;;4.03;2.33;;;;;;;18.59;61.05;100423.78;5071098;28;20647;-60
2023/04/27 03:18:25;;;;;;;5.43;3.40;;;;;;;18.60;60.90;100416.00;5077719;28;20517;-61
2023/04/27 03:20:51;;;;;;;5.60;2.43;;;;;;;18.63;60.87;100418.97;5084386;28;20202;-61
2023/04/27 03:23:16;;;;;;;5.70;2.50;;;;;;;18.57;60.93;100417.59;5070721;28;20179;-61
2023/04/27 03:25:42;;;;;;;4.50;2.40;;;;;;;18.56;60.97;100415.94;5070720;28;20172;-61
2023/04/27 03:28:07;;;;;;;4.90;2.50;;;;;;;18.54;61.29;100411.81;5071466;28;20183;-60
2023/04/27 03:30:33;;;;;;;4.60;2.20;;;;;;;18.53;61.34;100407.28;5070205;28;20527;-61
2023/04/27 03:32:58;;;;;;;5.83;3.23;;;;;;;18.53;61.15;100408.13;5070986;28;20531;-60
2023/04/27 03:35:23;;;;;;;3.70;2.13;;;;;;;18.54;61.07;100417.53;5071882;28;20265;-60
2023/04/27 03:37:49;;;;;;;5.17;2.60;;;;;;;18.52;61.01;100426.47;5071650;28;20171;-61
2023/04/27 03:40:14;;;;;;;4.40;2.00;;;;;;;18.56;61.17;100429.44;5070504;28;20584;-61
2023/04/27 03:42:40;;;;;;;4.57;2.13;;;;;;;18.54;61.19;100420.38;5065168;28;20551;-60
2023/04/27 03:45:06;;;;;;;5.63;2.83;;;;;;;18.50;61.37;100423.19;5057563;28;20202;-60
2023/04/27 03:47:32;;;;;;;4.27;2.20;;;;;;;18.49;61.33;100420.69;5071473;28;20720;-60
2023/04/27 03:49:57;;;;;;;4.17;2.30;;;;;;;18.49;61.38;100415.81;5079481;28;20432;-60
2023/04/27 03:52:23;;;;;;;4.10;2.13;;;;;;;18.50;61.23;100420.31;5051772;28;20179;-61
2023/04/27 03:54:49;;;;;;;5.23;2.17;;;;;;;18.50;61.11;100419.47;5069989;28;20182;-60
2023/04/27 03:57:14;;;;;;;3.70;2.30;;;;;;;18.51;61.44;100429.72;5070158;28;20186;-59
2023/04/27 03:59:40;;;;;;;5.27;2.77;;;;;;;18.53;61.84;100428.16;5053224;28;20200;-61
2023/04/27 04:02:07;;;;;;;8.23;4.70;;;;;;;18.51;61.04;100427.69;5056335;28;20466;-61
2023/04/27 04:04:32;;;;;;;8.50;5.73;;;;;;;18.49;58.91;100429.25;5070822;28;20225;-60
2023/04/27 04:06:58;;;;;;;19.60;8.93;;;;;;;18.75;58.91;100433.06;5066157;28;20469;-60
2023/04/27 04:09:24;;;;;;;9.57;5.90;;;;;;;18.80;57.46;100429.91;5067501;28;20195;-59
2023/04/27 04:11:50;;;;;;;13.97;6.03;;;;;;;18.90;56.70;100431.28;5048819;28;20214;-61
2023/04/27 04:14:16;;;;;;;13.23;6.03;;;;;;;19.11;55.89;100431.72;5047725;28;20704;-60
2023/04/27 04:16:41;;;;;;;9.63;5.10;;;;;;;19.17;56.45;100430.97;5067419;28;20475;-61
2023/04/27 04:19:07;;;;;;;12.20;6.10;;;;;;;19.39;55.76;100435.91;5067064;28;20197;-62
2023/04/27 04:21:32;;;;;;;10.63;5.80;;;;;;;19.65;55.42;100438.78;5068533;28;20221;-59
2023/04/27 04:23:58;;;;;;;12.50;4.70;;;;;;;19.73;55.88;100443.44;5047180;28;20255;-61
2023/04/27 04:26:23;;;;;;;11.87;4.30;;;;;;;19.79;55.61;100444.75;5065244;28;20175;-59
2023/04/27 04:28:49;;;;;;;13.43;4.93;;;;;;;19.51;56.39;100447.16;5071532;28;20187;-60
2023/04/27 04:31:16;;;;;;;12.80;5.10;;;;;;;19.46;57.03;100438.88;5072411;28;20638;-60
2023/04/27 04:33:41;;;;;;;8.23;4.37;;;;;;;19.49;58.07;100443.03;5069563;28;20191;-60
2023/04/27 04:36:07;;;;;;;10.20;4.50;;;;;;;19.52;58.41;100442.25;5066600;28;20426;-60
2023/04/27 04:38:32;;;;;;;16.27;5.33;;;;;;;19.44;59.69;100449.91;5067482;28;20195;-61
2023/04/27 04:40:58;;;;;;;8.20;4.30;;;;;;;19.44;59.88;100438.47;5073915;28;20900;-59
2023/04/27 04:43:23;;;;;;;10.13;3.73;;;;;;;19.46;58.84;100441.75;5066158;28;20195;-60
2023/04/27 04:45:49;;;;;;;7.97;3.90;;;;;;;19.37;58.84;100441.19;5076150;28;20570;-61
2023/04/27 04:48:15;;;;;;;10.13;4.00;;;;;;;19.26;58.37;100439.38;5070246;28;20182;-60
2023/04/27 04:50:40;;;;;;;11.20;4.27;;;;;;;19.19;57.36;100439.19;5071493;28;20186;-61
2023/04/27 04:53:06;;;;;;;7.43;3.87;;;;;;;19.17;57.18;100438.75;5089456;28;20523;-61
2023/04/27 04:55:32;;;;;;;8.53;3.73;;;;;;;19.15;56.73;100450.59;5074673;28;20547;-60
2023/04/27 04:57:57;;;;;;;7.00;3.60;;;;;;;19.08;55.80;100441.88;5069691;28;20198;-61
2023/04/27 05:00:23;;;;;;;8.10;3.80;;;;;;;19.08;55.83;100452.50;5067884;28;20556;-60
2023/04/27 05:02:48;;;;;;;7.70;3.83;;;;;;;19.09;55.89;100442.69;5086889;28;20576;-61
2023/04/27 05:05:14;;;;;;;8.83;3.30;;;;;;;19.06;56.02;100449.19;5058254;28;20187;-61
2023/04/27 05:07:39;;;;;;;8.67;3.23;;;;;;;19.07;56.40;100447.97;5069035;28;20194;-61
2023/04/27 05:10:05;;;;;;;8.73;3.33;;;;;;;19.04;56.24;100446.72;5052471;28;21114;-61
2023/04/27 05:12:30;;;;;;;8.20;3.00;;;;;;;19.07;56.42;100454.50;5068443;28;20265;-61
2023/04/27 05:14:56;;;;;;;5.23;2.80;;;;;;;19.05;56.79;100442.63;5068583;28;20164;-61
2023/04/27 05:17:21;;;;;;;6.17;2.70;;;;;;;19.02;56.99;100456.88;5068892;28;20167;-61
2023/04/27 05:19:47;;;;;;;4.83;2.87;;;;;;;19.02;56.98;100454.84;5070609;28;20264;-60
2023/04/27 05:22:12;;;;;;;4.00;2.30;;;;;;;19.02;57.00;100454.84;5068178;28;20252;-61
2023/04/27 05:24:38;;;;;;;5.93;2.90;;;;;;;19.02;57.14;100460.56;5068404;28;20197;-60
2023/04/27 05:27:03;;;;;;;7.03;3.10;;;;;;;19.01;57.16;100472.41;5070374;28;20189;-61
2023/04/27 05:29:28;;;;;;;5.10;2.30;;;;;;;18.99;57.55;100469.91;5088575;28;20185;-61
2023/04/27 05:31:54;;;;;;;8.13;3.00;;;;;;;18.99;57.58;100467.06;5086048;28;20197;-60
2023/04/27 05:34:20;;;;;;;3.83;2.10;;;;;;;18.98;58.05;100476.00;5070364;28;20258;-62
2023/04/27 05:36:48;;;;;;;6.60;3.13;;;;;;;18.98;57.98;100479.72;5035821;28;20197;-60
2023/04/27 05:39:13;;;;;;;6.63;2.50;;;;;;;18.97;57.97;100480.91;5068238;28;20216;-61
2023/04/27 05:41:39;;;;;;;5.03;2.90;;;;;;;18.97;57.98;100485.81;5068032;28;20929;-62
2023/04/27 05:44:05;;;;;;;4.07;2.40;;;;;;;18.96;58.05;100482.09;5068253;28;20191;-62
2023/04/27 05:46:30;;;;;;;5.30;2.80;;;;;;;18.95;58.00;100483.31;5068176;28;20484;-62
2023/04/27 05:48:56;;;;;;;5.63;2.57;;;;;;;18.95;58.26;100489.03;5068221;28;20224;-62
2023/04/27 05:51:21;;;;;;;9.17;2.80;;;;;;;18.93;58.54;100497.19;5049650;28;20909;-62
2023/04/27 05:53:47;;;;;;;4.70;3.10;;;;;;;18.92;58.62;100497.56;5071110;28;20191;-62
2023/04/27 05:56:12;;;;;;;6.67;2.93;;;;;;;18.90;58.69;100479.94;5067973;28;20176;-61
2023/04/27 05:58:38;;;;;;;6.20;2.63;;;;;;;18.88;58.76;100488.06;5070175;28;20236;-61
2023/04/27 06:01:03;;;;;;;4.33;2.50;;;;;;;18.86;58.83;100502.75;5067962;28;20210;-62
2023/04/27 06:03:29;;;;;;;4.30;2.20;;;;;;;18.87;58.67;100492.97;5069041;28;20178;-61
2023/04/27 06:05:56;;;;;;;5.40;2.57;;;;;;;18.87;58.99;100500.72;5068697;28;20183;-60
2023/04/27 06:08:21;;;;;;;5.30;2.70;;;;;;;18.87;58.90;100509.31;5070308;28;20902;-61
2023/04/27 06:10:47;;;;;;;5.37;2.60;;;;;;;18.87;58.84;100515.03;5059361;28;20451;-61
2023/04/27 06:13:12;;;;;;;3.00;2.10;;;;;;;18.85;59.00;100515.41;5088111;28;20649;-61
2023/04/27 06:15:38;;;;;;;8.37;2.77;;;;;;;18.87;58.99;100515.03;5064114;28;20190;-62
2023/04/27 06:18:04;;;;;;;4.10;2.40;;;;;;;18.85;59.10;100517.44;5068425;28;20190;-62
2023/04/27 06:20:30;;;;;;;7.03;2.93;;;;;;;18.84;59.02;100521.50;5083072;28;20206;-61
2023/04/27 06:22:56;;;;;;;5.20;2.63;;;;;;;18.83;59.31;100520.69;5078533;28;20194;-61
2023/04/27 06:25:22;;;;;;;5.90;2.60;;;;;;;18.84;59.52;100521.50;5069162;28;20416;-61
2023/04/27 06:27:48;;;;;;;8.70;2.77;;;;;;;18.84;59.32;100522.34;5083446;28;20440;-61
2023/04/27 06:30:13;;;;;;;4.87;2.87;;;;;;;18.82;59.25;100518.19;5070996;28;20187;-60
2023/04/27 06:32:38;;;;;;;4.00;1.97;;;;;;;18.82;59.32;100523.91;5047718;28;20194;-61
2023/04/27 06:35:04;;;;;;;6.67;2.70;;;;;;;18.82;59.45;100523.91;5047726;28;20168;-61
2023/04/27 06:37:30;;;;;;;4.10;2.50;;;;;;;18.82;59.38;100521.06;5071229;28;20233;-61
2023/04/27 06:39:55;;;;;;;4.70;2.50;;;;;;;18.83;59.27;100526.41;5067443;28;20711;-60
2023/04/27 06:42:21;;;;;;;4.40;2.33;;;;;;;18.80;59.70;100518.56;5054391;28;20801;-61
2023/04/27 06:44:46;;;;;;;5.73;2.43;;;;;;;18.82;59.53;100521.88;5087393;28;20175;-60
2023/04/27 06:47:12;;;;;;;3.53;2.20;;;;;;;18.81;59.84;100522.28;5048500;28;20671;-61
2023/04/27 06:49:37;;;;;;;9.37;2.70;;;;;;;18.79;59.56;100518.94;5067481;28;20968;-61
2023/04/27 06:52:03;;;;;;;4.47;2.00;;;;;;;18.84;59.33;100518.63;5076309;28;20190;-61
2023/04/27 06:54:28;;;;;;;5.47;2.60;;;;;;;18.84;59.46;100513.75;5087916;28;20181;-61
2023/04/27 06:56:54;;;;;;;4.10;1.80;;;;;;;18.90;59.25;100517.13;5083022;28;20459;-60
2023/04/27 06:59:20;;;;;;;4.50;2.00;;;;;;;18.94;59.10;100518.03;5087682;28;20272;-61
2023/04/27 07:01:45;;;;;;;4.30;2.23;;;;;;;18.97;59.05;100526.66;5087416;28;20245;-60
2023/04/27 07:04:11;;;;;;;6.67;2.43;;;;;;;18.95;59.20;100519.66;5072777;28;20228;-62
2023/04/27 07:06:36;;;;;;;4.00;2.20;;;;;;;18.93;59.29;100520.06;5048864;28;20356;-60
2023/04/27 07:09:04;;;;;;;4.00;2.20;;;;;;;18.98;59.09;100522.63;5035267;28;20211;-59
2023/04/27 07:11:29;;;;;;;3.30;2.30;;;;;;;18.93;59.38;100522.94;5067268;28;20219;-61
2023/04/27 07:13:55;;;;;;;4.10;2.07;;;;;;;18.90;59.48;100519.97;5049366;28;20413;-60
2023/04/27 07:16:20;;;;;;;3.90;2.40;;;;;;;18.89;59.47;100518.34;5067602;28;20183;-60
2023/04/27 07:18:46;;;;;;;3.20;2.30;;;;;;;18.85;59.66;100518.25;5076978;28;20654;-61
2023/04/27 07:21:11;;;;;;;3.40;2.10;;;;;;;18.84;59.85;100528.06;5081038;28;20696;-61
2023/04/27 07:23:38;;;;;;;3.90;2.70;;;;;;;18.82;59.84;100530.44;5070974;28;20183;-60
2023/04/27 07:26:04;;;;;;;7.00;2.07;;;;;;;18.84;59.71;100532.94;5050750;28;20180;-61
2023/04/27 07:28:30;;;;;;;4.27;2.00;;;;;;;18.81;59.83;100528.00;5050692;28;20418;-60
2023/04/27 07:30:56;;;;;;;3.17;2.20;;;;;;;18.82;60.01;100526.78;5076806;28;20174;-61
2023/04/27 07:33:22;;;;;;;3.40;2.37;;;;;;;18.78;60.10;100529.56;5090869;28;20208;-61
2023/04/27 07:35:49;;;;;;;4.10;2.03;;;;;;;18.79;60.03;100524.66;5090491;28;20405;-60
2023/04/27 07:38:16;;;;;;;4.23;2.27;;;;;;;18.76;59.95;100529.09;5074792;28;20182;-61
2023/04/27 07:40:41;;;;;;;3.77;2.17;;;;;;;18.77;60.04;100524.22;5052072;28;21015;-60
2023/04/27 07:43:08;;;;;;;4.40;2.10;;;;;;;18.77;59.99;100527.91;5052101;28;20429;-61
2023/04/27 07:45:36;;;;;;;3.70;2.10;;;;;;;18.77;60.09;100521.38;5072643;28;20198;-60
2023/04/27 07:48:01;;;;;;;3.10;1.87;;;;;;;18.76;60.25;100523.38;5070261;28;20516;-61
2023/04/27 07:50:28;;;;;;;4.60;2.37;;;;;;;18.76;60.01;100520.53;5072663;28;20819;-60
2023/04/27 07:52:54;;;;;;;3.60;2.27;;;;;;;18.75;60.10;100518.03;5070723;28;20185;-60
2023/04/27 07:55:21;;;;;;;3.40;1.83;;;;;;;18.74;60.38;100516.38;5090015;28;20531;-61
2023/04/27 07:57:46;;;;;;;4.10;2.00;;;;;;;18.73;60.30;100515.56;5090415;28;20674;-61
2023/04/27 08:00:12;;;;;;;2.97;2.10;;;;;;;18.73;60.21;100514.75;5086467;28;20432;-62
2023/04/27 08:02:37;;;;;;;4.07;2.20;;;;;;;18.71;60.22;100506.53;5071323;28;20190;-61
2023/04/27 08:05:03;;;;;;;4.10;2.13;;;;;;;18.73;60.32;100506.16;5069301;28;20179;-61
2023/04/27 08:07:28;;;;;;;3.10;2.10;;;;;;;18.72;60.35;100516.75;5076124;28;20198;-60
2023/04/27 08:09:54;;;;;;;4.70;1.97;;;;;;;18.73;60.34;100511.88;5077382;28;20168;-60
2023/04/27 08:12:20;;;;;;;4.23;2.10;;;;;;;18.71;60.11;100509.38;5068985;28;20218;-61
2023/04/27 08:14:46;;;;;;;3.50;1.80;;;;;;;18.72;60.36;100510.22;5087814;28;20210;-61
2023/04/27 08:17:12;;;;;;;5.00;2.30;;;;;;;18.73;60.27;100509.03;5090007;28;20439;-60
2023/04/27 08:19:37;;;;;;;2.57;1.73;;;;;;;18.72;60.17;100507.38;5067599;28;20209;-60
2023/04/27 08:22:02;;;;;;;3.40;2.40;;;;;;;18.71;60.22;100505.72;5072898;28;20347;-60
2023/04/27 08:24:28;;;;;;;3.77;2.17;;;;;;;18.71;60.44;100488.56;5069947;28;20881;-61
2023/04/27 08:26:53;;;;;;;2.87;1.87;;;;;;;18.70;60.34;100499.16;5071198;28;20205;-61
2023/04/27 08:29:19;;;;;;;4.23;1.87;;;;;;;18.72;60.34;100502.47;5069472;28;20190;-61
2023/04/27 08:31:44;;;;;;;3.90;2.57;;;;;;;18.70;60.50;100499.16;5079627;28;20179;-60
2023/04/27 08:34:10;;;;;;;3.00;2.10;;;;;;;18.69;60.43;100499.53;5089266;28;20174;-61
2023/04/27 08:36:35;;;;;;;6.27;1.90;;;;;;;18.68;60.52;100495.88;5087441;28;20193;-61
2023/04/27 08:39:01;;;;;;;2.57;1.90;;;;;;;18.70;60.34;100498.31;5069288;28;20657;-60
2023/04/27 08:41:26;;;;;;;3.73;1.77;;;;;;;18.68;60.43;100497.88;5050943;28;20712;-60
2023/04/27 08:43:52;;;;;;;5.40;1.87;;;;;;;18.68;60.43;100490.16;5079734;28;20592;-60
2023/04/27 08:46:27;;;;;;;4.87;2.20;;;;;;;18.69;60.42;100496.66;5089388;28;20190;-60
2023/04/27 08:48:53;;;;;;;4.83;2.57;;;;;;;18.71;60.65;100497.94;5042575;28;20483;-60
2023/04/27 08:51:18;;;;;;;4.20;2.07;;;;;;;18.70;60.39;100502.03;5060120;28;20445;-60
2023/04/27 08:53:51;;;;;;;5.33;2.43;;;;;;;18.73;60.44;100500.44;5050485;28;20628;-61
2023/04/27 08:56:17;;;;;;;2.87;1.77;;;;;;;18.71;60.47;100500.81;5079431;28;20915;-60
2023/04/27 08:58:42;;;;;;;5.23;2.17;;;;;;;18.73;60.26;100495.56;5050373;28;20432;-60
2023/04/27 09:01:08;;;;;;;4.60;2.20;;;;;;;18.79;60.05;100502.63;5049883;28;20992;-60
2023/04/27 09:03:35;;;;;;;3.70;1.90;;;;;;;18.83;59.94;100500.66;5051789;28;20198;-61
2023/04/27 09:06:04;;;;;;;3.30;1.93;;;;;;;18.78;60.15;100491.56;5054587;28;20174;-60
2023/04/27 09:08:43;;;;;;;4.00;1.90;;;;;;;18.73;60.21;100492.69;5068563;28;20484;-61
2023/04/27 09:11:08;;;;;;;4.67;2.20;;;;;;;18.79;59.94;100499.75;5068374;28;20890;-60
2023/04/27 09:13:37;;;;;;;3.53;2.17;;;;;;;18.85;60.20;100506.81;5068208;28;20425;-60
2023/04/27 09:16:03;;;;;;;2.93;1.87;;;;;;;18.85;59.88;100501.09;5082317;28;20182;-60
2023/04/27 09:18:32;;;;;;;4.13;2.13;;;;;;;18.85;60.00;100501.09;5070554;28;20513;-60
2023/04/27 09:20:58;;;;;;;3.27;2.07;;;;;;;18.87;60.15;100507.25;5080784;28;20684;-60
2023/04/27 09:23:37;;;;;;;3.40;2.17;;;;;;;18.83;60.38;100503.53;5068354;28;20425;-59
2023/04/27 09:26:06;;;;;;;3.40;2.20;;;;;;;18.80;60.26;100509.16;5087353;28;20863;-61
2023/04/27 09:28:33;;;;;;;3.40;2.00;;;;;;;18.77;59.85;100501.34;5071171;28;20908;-61
2023/04/27 09:30:59;;;;;;;3.97;1.87;;;;;;;18.75;60.64;100496.00;5070338;28;20887;-61
2023/04/27 09:33:28;;;;;;;4.27;2.13;;;;;;;18.74;60.63;100500.06;5068217;28;20893;-61
2023/04/27 09:35:53;;;;;;;5.10;3.43;;;;;;;18.75;60.92;100501.72;5070396;28;20428;-59
2023/04/27 09:38:20;;;;;;;3.00;1.67;;;;;;;18.75;60.39;100496.00;5068343;28;20748;-61
2023/04/27 09:40:46;;;;;;;4.80;2.00;;;;;;;18.74;60.70;100499.22;5067709;28;20191;-60
2023/04/27 09:43:11;;;;;;;2.70;1.80;;;;;;;18.73;60.82;100498.41;5060289;28;20443;-60
2023/04/27 09:45:37;;;;;;;3.40;1.80;;;;;;;18.72;60.55;100490.22;5086894;28;20564;-61
2023/04/27 09:48:05;;;;;;;2.77;1.83;;;;;;;18.73;60.73;100498.41;5084234;28;20558;-60
2023/04/27 09:50:41;;;;;;;3.27;1.77;;;;;;;18.73;60.66;100494.72;5084277;28;20308;-60
2023/04/27 09:53:10;;;;;;;3.23;1.73;;;;;;;18.72;60.54;100493.06;5067616;28;20397;-61
2023/04/27 09:55:39;;;;;;;2.83;1.73;;;;;;;18.73;60.72;100486.97;5084537;28;20482;-60
2023/04/27 09:58:33;;;;;;;3.17;1.90;;;;;;;18.74;60.46;100482.06;5053051;28;20416;-59
2023/04/27 10:01:22;;;;;;;2.63;1.90;;;;;;;18.70;60.62;100479.13;5087612;28;20476;-60
2023/04/27 10:03:48;;;;;;;3.10;1.80;;;;;;;18.70;60.07;100484.88;5065065;28;20439;-61
2023/04/27 10:06:28;;;;;;;2.50;1.70;;;;;;;18.71;60.50;100480.78;5087546;28;20940;-61
2023/04/27 10:08:55;;;;;;;3.73;2.10;;;;;;;18.70;60.82;100469.72;5083059;28;20209;-59
2023/04/27 10:11:31;;;;;;;2.57;1.70;;;;;;;18.69;60.63;100468.91;5067166;28;20492;-59
2023/04/27 10:13:57;;;;;;;3.03;1.70;;;;;;;18.70;60.46;100473.41;5034340;28;20558;-59
2023/04/27 10:16:22;;;;;;;3.17;1.80;;;;;;;18.70;60.48;100476.28;5067882;28;20831;-60
2023/04/27 10:18:55;;;;;;;4.07;2.20;;;;;;;18.71;60.67;100477.13;5051726;28;22368;-60
2023/04/27 10:21:20;;;;;;;3.30;1.60;;;;;;;18.68;60.60;100472.97;5067842;28;20649;-60
2023/04/27 10:23:50;;;;;;;2.63;2.03;;;;;;;18.69;61.04;100462.34;5069938;28;20421;-60
2023/04/27 10:26:25;;;;;;;2.97;1.83;;;;;;;18.71;60.60;100459.97;5048832;28;20170;-61
2023/04/27 10:29:07;;;;;;;2.90;1.80;;;;;;;18.70;60.71;100470.56;5032497;28;20445;-61
2023/04/27 10:31:33;;;;;;;3.13;1.93;;;;;;;18.70;60.81;100470.56;5046709;28;21010;-60
2023/04/27 10:34:08;;;;;;;3.30;2.03;;;;;;;18.72;60.71;100473.06;5029238;28;20448;-60
2023/04/27 10:36:35;;;;;;;3.63;2.07;;;;;;;18.71;60.75;100469.34;5068782;28;20190;-60
2023/04/27 10:39:01;;;;;;;2.33;1.80;;;;;;;18.70;60.97;100473.41;5074842;28;20788;-61
2023/04/27 10:41:33;;;;;;;3.27;1.97;;;;;;;18.70;60.66;100470.56;5067440;28;20465;-61
2023/04/27 10:44:12;;;;;;;3.50;1.80;;;;;;;18.69;60.70;100474.63;5067796;28;20168;-60
2023/04/27 10:46:48;;;;;;;2.60;1.60;;;;;;;18.70;60.94;100470.56;5067673;28;20416;-61
2023/04/27 10:49:15;;;;;;;3.80;1.97;;;;;;;18.69;60.69;100474.63;5034173;28;20429;-61
2023/04/27 10:51:40;;;;;;;3.83;1.63;;;;;;;18.70;60.91;100455.41;5066079;28;20794;-60
2023/04/27 10:54:06;;;;;;;2.47;1.80;;;;;;;18.73;60.73;100458.38;5072484;28;20432;-60
2023/04/27 10:56:32;;;;;;;3.37;1.80;;;;;;;18.73;60.57;100458.38;5072057;28;20186;-60
2023/04/27 10:59:07;;;;;;;3.07;1.70;;;;;;;18.79;60.46;100456.00;5090904;28;20155;-60
2023/04/27 11:01:32;;;;;;;2.63;1.70;;;;;;;18.83;60.35;100452.03;5070508;28;20495;-61
2023/04/27 11:03:58;;;;;;;2.90;1.80;;;;;;;18.87;59.99;100454.97;5072199;28;20518;-61
2023/04/27 11:06:24;;;;;;;2.90;1.60;;;;;;;18.86;60.26;100451.25;5053161;28;20565;-61
2023/04/27 11:08:49;;;;;;;3.83;2.27;;;;;;;18.88;60.24;100454.59;5071020;28;20234;-61
2023/04/27 11:11:18;;;;;;;2.97;1.90;;;;;;;18.85;60.28;100458.19;5071012;28;20598;-61
2023/04/27 11:13:43;;;;;;;3.13;1.90;;;;;;;18.79;60.66;100451.13;5073143;28;20217;-61
2023/04/27 11:16:09;;;;;;;2.40;1.63;;;;;;;18.87;60.15;100444.31;5053174;28;20417;-60
2023/04/27 11:18:38;;;;;;;2.37;1.50;;;;;;;18.90;60.02;100452.16;5070755;28;20156;-61
2023/04/27 11:21:06;;;;;;;3.63;2.07;;;;;;;18.90;60.11;100439.88;5072981;28;20492;-61